Terminal Aerodrome Forecast
Issued by NWS

Home | Current Version | Previous Version | Text Only | Print | Product List | Glossary Off
Versions: 1 2 3 4 5 6 7 8 9 10 11 12 13 14 15 16 17 18 19 20 21 22 23 24 25 26 27 28 29 30 31 32

000
FTUS43 KDVN 251220 AAA
TAFCID
TAF AMD
KCID 251220Z 2512/2612 04015G22KT P6SM -RADZ BKN007
      TEMPO 2512/2514 2SM -RA BR
     FM251400 05015G23KT 3SM SHRA BR OVC006
     FM260500 05008KT 5SM BR OVC005=

USA.gov is the U.S. government's official web portal to all federal, state and local government web resources and services.